Time;durP1;ratioP1;P1;durP2;ratioP2;P2;SDS_P1;SDS_P2;PMS_P1;PMS_P2;Temp;Humidity;BMP_temperature;BMP_pressure;BME280_temperature;BME280_humidity;BME280_pressure;Samples;Min_cycle;Max_cycle;Signal;HPM_P1;HPM_P2
2022/02/18 00:00:14;;;;;;;10.07;2.55;;;;;;;18.91;48.08;101043.53;4994539;28;20072;-67
2022/02/18 00:02:39;;;;;;;9.13;2.20;;;;;;;18.90;48.23;101037.44;4993765;28;20067;-68
2022/02/18 00:05:05;;;;;;;6.13;2.03;;;;;;;18.90;48.20;101039.22;4994344;28;20073;-68
2022/02/18 00:07:30;;;;;;;9.25;2.42;;;;;;;18.88;48.38;101035.88;4994282;28;20747;-68
2022/02/18 00:09:55;;;;;;;8.82;2.33;;;;;;;18.86;48.81;101028.06;4993752;28;20467;-68
2022/02/18 00:12:21;;;;;;;8.70;2.13;;;;;;;18.84;48.30;101030.84;4994369;28;20038;-67
2022/02/18 00:14:47;;;;;;;7.50;2.17;;;;;;;18.83;48.29;101023.88;4993687;28;20407;-68
2022/02/18 00:17:12;;;;;;;9.48;2.25;;;;;;;18.81;48.50;101033.69;4993907;28;20497;-68
2022/02/18 00:19:38;;;;;;;7.22;2.20;;;;;;;18.80;48.30;101017.97;4994148;28;20026;-68
2022/02/18 00:22:03;;;;;;;7.82;2.38;;;;;;;18.78;48.47;101010.19;4993660;28;20034;-68
2022/02/18 00:24:29;;;;;;;8.32;2.22;;;;;;;18.77;48.16;101011.16;4993763;28;20470;-68
2022/02/18 00:26:54;;;;;;;8.60;2.08;;;;;;;18.76;48.17;101020.03;4994069;28;20066;-68
2022/02/18 00:29:19;;;;;;;7.30;1.97;;;;;;;18.75;48.17;101017.53;4993047;28;20030;-68
2022/02/18 00:31:44;;;;;;;8.68;2.55;;;;;;;18.73;47.85;101011.53;4994099;28;20259;-68
2022/02/18 00:34:10;;;;;;;7.68;2.22;;;;;;;18.72;48.48;101005.38;4993757;28;20029;-68
2022/02/18 00:36:35;;;;;;;9.70;2.10;;;;;;;18.68;48.13;100994.25;4993183;28;20137;-68
2022/02/18 00:39:00;;;;;;;9.05;2.13;;;;;;;18.68;48.18;101006.63;4994044;28;20276;-68
2022/02/18 00:41:26;;;;;;;7.07;2.28;;;;;;;18.66;48.05;100998.81;4993456;28;20042;-68
2022/02/18 00:43:51;;;;;;;9.10;2.45;;;;;;;18.66;48.31;100998.00;4992955;28;20018;-67
2022/02/18 00:46:16;;;;;;;8.60;2.25;;;;;;;18.64;48.41;100999.91;4993533;28;20033;-68
2022/02/18 00:48:41;;;;;;;9.65;2.90;;;;;;;18.60;47.90;100990.56;4993760;28;20057;-68
2022/02/18 00:51:07;;;;;;;7.93;2.37;;;;;;;18.61;47.99;100993.09;4992988;28;20485;-68
2022/02/18 00:53:33;;;;;;;7.60;2.75;;;;;;;18.60;48.56;100994.03;4993753;28;20749;-67
2022/02/18 00:55:59;;;;;;;8.20;2.28;;;;;;;18.59;47.97;100988.88;4993743;28;20025;-68
2022/02/18 00:58:24;;;;;;;7.57;1.73;;;;;;;18.57;47.98;100986.38;4992418;28;20023;-67
2022/02/18 01:00:50;;;;;;;7.35;2.15;;;;;;;18.57;48.27;100990.81;4992642;28;20049;-67
2022/02/18 01:03:17;;;;;;;6.82;1.90;;;;;;;18.56;48.26;100986.50;4993232;28;20080;-67
2022/02/18 01:05:42;;;;;;;9.02;2.40;;;;;;;18.54;48.43;100985.78;4992515;28;20073;-67
2022/02/18 01:08:07;;;;;;;8.80;2.35;;;;;;;18.52;48.29;100974.50;4993324;28;20112;-67
2022/02/18 01:10:33;;;;;;;7.38;2.35;;;;;;;18.51;48.33;100967.56;4993469;28;20470;-67
2022/02/18 01:13:01;;;;;;;6.80;1.98;;;;;;;18.49;48.37;100962.41;4992766;28;20089;-67
2022/02/18 01:15:27;;;;;;;7.93;1.90;;;;;;;18.47;48.26;100956.41;4993010;28;20037;-67
2022/02/18 01:17:52;;;;;;;10.50;2.60;;;;;;;18.48;48.47;100950.16;4993056;28;20468;-67
2022/02/18 01:20:17;;;;;;;6.97;2.10;;;;;;;18.47;48.24;100940.59;4992241;28;20031;-68
2022/02/18 01:22:43;;;;;;;7.35;1.83;;;;;;;18.45;47.76;100950.41;4993242;28;20030;-67
2022/02/18 01:25:09;;;;;;;8.27;2.20;;;;;;;18.43;48.31;100947.88;4992170;28;20109;-68
2022/02/18 01:27:35;;;;;;;8.75;2.22;;;;;;;18.43;47.96;100947.06;4993085;28;20426;-68
2022/02/18 01:30:00;;;;;;;7.18;2.08;;;;;;;18.44;48.15;100932.91;4993242;28;20467;-67
2022/02/18 01:32:26;;;;;;;6.93;2.03;;;;;;;18.40;48.20;100937.59;4992165;28;20057;-67
2022/02/18 01:34:51;;;;;;;8.10;2.05;;;;;;;18.41;48.16;100944.53;4993000;28;20026;-67
2022/02/18 01:37:16;;;;;;;6.90;2.22;;;;;;;18.40;47.87;100948.13;4992790;28;20034;-68
2022/02/18 01:39:42;;;;;;;8.50;2.00;;;;;;;18.40;48.09;100942.84;4992397;28;20038;-67
2022/02/18 01:42:07;;;;;;;8.53;2.30;;;;;;;18.40;48.34;100944.66;4992883;28;20640;-67
2022/02/18 01:44:33;;;;;;;9.30;2.13;;;;;;;18.39;48.30;100935.06;4993032;28;20271;-67
2022/02/18 01:46:58;;;;;;;8.13;2.08;;;;;;;18.38;48.15;100931.59;4992267;28;20041;-67
2022/02/18 01:49:24;;;;;;;9.27;2.47;;;;;;;18.36;48.16;100920.34;4992809;28;20030;-67
2022/02/18 01:51:49;;;;;;;7.97;1.93;;;;;;;18.36;47.82;100922.97;4993215;28;20445;-67
2022/02/18 01:54:14;;;;;;;7.72;2.00;;;;;;;18.35;48.40;100912.53;4992165;28;20319;-67
2022/02/18 01:56:40;;;;;;;9.85;1.95;;;;;;;18.33;48.19;100906.56;4992887;28;20030;-67
2022/02/18 01:59:05;;;;;;;6.27;2.00;;;;;;;18.31;48.37;100896.13;4992927;28;20118;-67
2022/02/18 02:01:30;;;;;;;8.43;2.30;;;;;;;18.31;48.15;100885.59;4991682;28;20338;-67
2022/02/18 02:03:55;;;;;;;7.80;2.05;;;;;;;18.30;48.41;100883.91;4992601;28;20760;-67
2022/02/18 02:06:22;;;;;;;9.40;2.50;;;;;;;18.28;48.48;100876.09;4992554;28;20030;-67
2022/02/18 02:08:47;;;;;;;8.18;1.70;;;;;;;18.28;48.02;100888.47;4992338;28;20292;-67
2022/02/18 02:11:13;;;;;;;7.60;2.17;;;;;;;18.27;48.52;100889.41;4993746;28;20081;-68
2022/02/18 02:13:40;;;;;;;7.97;2.40;;;;;;;18.27;48.07;100890.25;4996552;28;20038;-67
2022/02/18 02:16:07;;;;;;;10.30;2.20;;;;;;;18.26;48.22;100882.44;4995760;28;20291;-67
2022/02/18 02:18:33;;;;;;;7.57;1.90;;;;;;;18.25;48.29;100886.91;4996379;28;20049;-67
2022/02/18 02:20:59;;;;;;;8.23;1.92;;;;;;;18.24;48.21;100877.31;4996686;28;20034;-67
2022/02/18 02:23:27;;;;;;;8.43;2.08;;;;;;;18.25;48.13;100872.88;4995530;28;20379;-68
2022/02/18 02:25:52;;;;;;;10.48;3.28;;;;;;;18.23;48.03;100862.47;4996493;28;20096;-67
2022/02/18 02:28:18;;;;;;;9.02;2.50;;;;;;;18.23;48.45;100853.69;4996152;28;20023;-68
2022/02/18 02:30:43;;;;;;;12.13;2.70;;;;;;;18.22;48.35;100852.84;4995416;28;20028;-67
2022/02/18 02:33:09;;;;;;;8.18;2.15;;;;;;;18.20;48.25;100833.69;4996250;28;20019;-67
2022/02/18 02:35:37;;;;;;;8.80;2.50;;;;;;;18.21;48.42;100829.25;4995514;28;20034;-67
2022/02/18 02:38:03;;;;;;;9.38;2.30;;;;;;;18.21;48.53;100823.97;4996167;28;20097;-67
2022/02/18 02:40:29;;;;;;;7.65;2.38;;;;;;;18.20;48.75;100824.91;4995705;28;20049;-68
2022/02/18 02:42:54;;;;;;;9.43;2.20;;;;;;;18.20;48.69;100811.72;4995423;28;20023;-68
2022/02/18 02:45:19;;;;;;;9.57;2.53;;;;;;;18.18;48.49;100803.13;4995660;28;20023;-68
2022/02/18 02:47:46;;;;;;;10.02;2.30;;;;;;;18.18;48.15;100787.28;4996204;28;20029;-68
2022/02/18 02:50:20;;;;;;;9.35;2.30;;;;;;;18.16;48.91;100776.03;4994803;28;20474;-68
2022/02/18 02:52:48;;;;;;;9.57;2.57;;;;;;;18.16;48.58;100776.03;4996017;28;20072;-68
2022/02/18 02:55:13;;;;;;;7.88;2.63;;;;;;;18.16;48.29;100773.41;4995607;28;20287;-68
2022/02/18 02:57:43;;;;;;;10.35;2.38;;;;;;;18.15;48.40;100762.03;4994690;28;20069;-68
2022/02/18 03:00:11;;;;;;;10.18;2.60;;;;;;;18.15;48.32;100751.47;4995478;28;20125;-68
2022/02/18 03:02:36;;;;;;;9.63;2.50;;;;;;;18.14;48.55;100752.44;4995720;28;20026;-68
2022/02/18 03:05:03;;;;;;;8.05;2.00;;;;;;;18.14;48.73;100747.16;4994929;28;20402;-68
2022/02/18 03:07:28;;;;;;;10.90;2.47;;;;;;;18.12;48.69;100739.38;4995550;28;20039;-68
2022/02/18 03:09:54;;;;;;;;;;;;;;;18.12;48.77;100744.63;4995840;28;20505;-67
2022/02/18 03:12:19;;;;;;;;;;;;;;;18.11;48.77;100735.03;4994886;28;20301;-68
2022/02/18 03:14:44;;;;;;;;;;;;;;;18.11;48.68;100737.69;4995813;28;20255;-67
2022/02/18 03:17:09;;;;;;;;;;;;;;;18.10;48.61;100732.53;4995471;28;19914;-67
2022/02/18 03:19:35;;;;;;;;;;;;;;;18.08;48.57;100714.19;4994864;28;19913;-67
2022/02/18 03:22:00;;;;;;;;;;;;;;;18.08;48.76;100705.47;4995396;28;19924;-67
2022/02/18 03:24:25;;;;;;;;;;;;;;;18.07;48.78;100694.09;4994764;28;20550;-67
2022/02/18 03:26:59;;;;;;;;;;;;;;;18.07;49.13;100688.81;4994930;28;20324;-67
2022/02/18 03:29:26;;;;;;;;;;;;;;;18.08;48.71;100679.09;4995420;28;19917;-67
2022/02/18 03:31:51;;;;;;;9.80;2.60;;;;;;;18.06;49.03;100662.56;4995003;28;19914;-67
2022/02/18 03:34:17;;;;;;;10.32;2.90;;;;;;;18.04;49.03;100659.19;4994878;28;20374;-67
2022/02/18 03:36:42;;;;;;;8.40;2.33;;;;;;;18.05;49.24;100666.16;4994794;28;20092;-67
2022/02/18 03:39:10;;;;;;;8.05;2.10;;;;;;;18.04;49.30;100662.69;4994051;28;20288;-68
2022/02/18 03:41:36;;;;;;;8.77;2.67;;;;;;;18.03;48.90;100655.72;4994824;28;20022;-67
2022/02/18 03:44:02;;;;;;;9.43;2.38;;;;;;;18.03;48.71;100655.72;4995120;28;20030;-67
2022/02/18 03:46:34;;;;;;;11.07;2.47;;;;;;;18.02;49.07;100654.03;4993589;28;20156;-67
2022/02/18 03:48:59;;;;;;;;;;;;;;;18.02;48.73;100661.97;4995057;28;20027;-67
2022/02/18 03:51:24;;;;;;;;;;;;;;;18.01;49.06;100657.66;4994769;28;20404;-67
2022/02/18 03:53:50;;;;;;;9.60;2.20;;;;;;;18.02;49.03;100659.31;4994180;28;19921;-67
2022/02/18 03:56:16;;;;;;;8.63;2.67;;;;;;;18.00;48.94;100650.72;4994275;28;20295;-68
2022/02/18 03:58:42;;;;;;;9.43;2.33;;;;;;;18.00;49.05;100647.25;4994764;28;20109;-67
2022/02/18 04:01:07;;;;;;;;;;;;;;;18.00;48.96;100637.53;4994240;28;20435;-67
2022/02/18 04:03:32;;;;;;;;;;;;;;;18.00;48.83;100628.78;4995116;28;20285;-67
2022/02/18 04:05:57;;;;;;;8.13;2.17;;;;;;;17.98;49.19;100604.38;4994257;28;20265;-67
2022/02/18 04:08:23;;;;;;;10.00;2.53;;;;;;;17.98;49.41;100599.91;4993363;28;20268;-67
2022/02/18 04:10:48;;;;;;;7.22;2.13;;;;;;;17.98;49.85;100584.09;4994429;28;20117;-67
2022/02/18 04:13:13;;;;;;;10.45;2.30;;;;;;;18.02;50.12;100574.94;4994264;28;20054;-67
2022/02/18 04:15:39;;;;;;;10.63;2.42;;;;;;;18.02;50.08;100572.31;4993767;28;20037;-67
2022/02/18 04:18:04;;;;;;;7.70;2.00;;;;;;;18.06;50.11;100557.91;4994333;28;20038;-68
2022/02/18 04:20:29;;;;;;;9.45;2.42;;;;;;;18.08;50.09;100542.78;4993962;28;20117;-67
2022/02/18 04:22:55;;;;;;;9.40;2.30;;;;;;;18.10;49.86;100540.88;4993508;28;20026;-67
2022/02/18 04:25:20;;;;;;;9.57;2.47;;;;;;;18.12;49.60;100524.91;4993698;28;20030;-67
2022/02/18 04:27:57;;;;;;;10.57;2.38;;;;;;;18.13;49.70;100502.81;4994359;28;20355;-67
2022/02/18 04:30:23;;;;;;;10.02;2.90;;;;;;;18.15;49.94;100508.81;4993803;28;20034;-67
2022/02/18 04:32:49;;;;;;;7.97;2.47;;;;;;;18.16;49.70;100515.75;4994080;28;20029;-67
2022/02/18 04:35:15;;;;;;;9.48;2.60;;;;;;;18.17;49.40;100512.16;4992684;28;20042;-67
2022/02/18 04:37:44;;;;;;;9.30;2.33;;;;;;;18.19;49.71;100502.31;4993704;28;20161;-67
2022/02/18 04:40:14;;;;;;;7.07;2.38;;;;;;;18.19;49.45;100481.19;4993465;28;20025;-67
2022/02/18 04:42:39;;;;;;;10.95;2.50;;;;;;;18.19;49.57;100473.28;4993107;28;20413;-67
2022/02/18 04:45:06;;;;;;;8.70;2.38;;;;;;;18.20;49.50;100455.66;4993894;28;20039;-67
2022/02/18 04:47:31;;;;;;;6.93;2.25;;;;;;;18.21;49.57;100449.41;4993502;28;20023;-67
2022/02/18 04:49:56;;;;;;;10.30;2.50;;;;;;;18.21;49.68;100437.06;4993096;28;20041;-67
2022/02/18 04:52:22;;;;;;;8.43;2.70;;;;;;;18.22;49.74;100443.19;4993227;28;20406;-67
2022/02/18 04:54:47;;;;;;;10.93;2.92;;;;;;;18.22;49.50;100440.53;4993680;28;20264;-67
2022/02/18 04:57:12;;;;;;;9.70;2.70;;;;;;;18.22;49.59;100435.28;4992717;28;20048;-67
2022/02/18 04:59:38;;;;;;;7.80;2.50;;;;;;;18.22;49.43;100425.53;4993617;28;20474;-67
2022/02/18 05:02:04;;;;;;;8.57;2.20;;;;;;;18.22;49.30;100417.63;4993586;28;20049;-67
2022/02/18 05:04:29;;;;;;;9.38;2.63;;;;;;;18.22;49.39;100400.97;4992109;28;20050;-67
2022/02/18 05:06:55;;;;;;;9.85;2.40;;;;;;;18.17;49.75;100393.47;4993359;28;20034;-67
2022/02/18 05:09:20;;;;;;;9.80;2.30;;;;;;;18.22;49.79;100390.44;4992853;28;20470;-67
2022/02/18 05:11:51;;;;;;;10.17;2.27;;;;;;;18.21;49.92;100392.22;4992681;28;20429;-67
2022/02/18 05:14:17;;;;;;;9.10;2.25;;;;;;;18.21;49.66;100381.66;4992946;28;20304;-67
2022/02/18 05:16:45;;;;;;;8.27;2.13;;;;;;;18.23;49.93;100376.25;4992948;28;20038;-67
2022/02/18 05:19:11;;;;;;;8.95;2.45;;;;;;;18.23;49.60;100374.47;4992008;28;20036;-67
2022/02/18 05:21:37;;;;;;;7.10;2.17;;;;;;;18.24;49.75;100360.28;4992902;28;20023;-66
2022/02/18 05:24:07;;;;;;;8.65;2.13;;;;;;;18.22;49.74;100366.69;4993215;28;20030;-66
2022/02/18 05:26:33;;;;;;;7.38;2.35;;;;;;;18.25;49.69;100359.34;4992280;28;20026;-66
2022/02/18 05:28:58;;;;;;;7.72;2.53;;;;;;;18.26;49.69;100357.50;4993053;28;20482;-66
2022/02/18 05:31:23;;;;;;;7.10;2.30;;;;;;;18.24;49.54;100344.47;4991965;28;20471;-67
2022/02/18 05:33:49;;;;;;;7.35;1.90;;;;;;;18.24;49.57;100320.72;4993128;28;20374;-67
2022/02/18 05:36:14;;;;;;;9.40;2.03;;;;;;;18.24;49.75;100318.09;4992013;28;20037;-67
2022/02/18 05:38:43;;;;;;;10.43;2.55;;;;;;;18.25;49.59;100316.31;4992202;28;20030;-66
2022/02/18 05:41:09;;;;;;;9.05;2.40;;;;;;;18.24;49.57;100317.25;4992745;28;20014;-67
2022/02/18 05:43:34;;;;;;;8.18;1.95;;;;;;;18.25;49.32;100303.13;4992828;28;20034;-67
2022/02/18 05:45:59;;;;;;;8.87;2.10;;;;;;;18.24;49.44;100294.34;4993200;28;20113;-66
2022/02/18 05:48:25;;;;;;;8.43;2.20;;;;;;;18.25;49.64;100292.56;4996522;28;20113;-66
2022/02/18 05:50:53;;;;;;;8.37;2.63;;;;;;;18.25;49.60;100284.66;4996736;28;20346;-66
2022/02/18 05:53:19;;;;;;;6.47;2.13;;;;;;;18.25;49.55;100271.47;4995981;28;20330;-67
2022/02/18 05:55:44;;;;;;;8.15;2.10;;;;;;;18.24;49.37;100254.78;4996959;28;20031;-66
2022/02/18 05:58:09;;;;;;;7.72;2.03;;;;;;;18.24;49.20;100260.06;4996175;28;20046;-67
2022/02/18 06:00:35;;;;;;;8.90;2.20;;;;;;;18.22;49.87;100242.72;4996332;28;20041;-67
2022/02/18 06:03:00;;;;;;;8.43;2.03;;;;;;;18.23;50.16;100239.94;4996861;28;20027;-66
2022/02/18 06:05:25;;;;;;;8.15;2.25;;;;;;;18.24;49.91;100238.13;4995925;28;20054;-66
2022/02/18 06:07:50;;;;;;;7.60;2.03;;;;;;;18.24;50.04;100228.41;4996089;28;20033;-66
2022/02/18 06:10:16;;;;;;;8.13;2.10;;;;;;;18.25;50.83;100230.09;4996269;28;20038;-67
2022/02/18 06:12:41;;;;;;;9.10;1.97;;;;;;;18.27;51.19;100207.03;4996437;28;20103;-66
2022/02/18 06:15:07;;;;;;;6.43;2.00;;;;;;;18.31;51.13;100205.78;4995716;28;20303;-67
2022/02/18 06:17:32;;;;;;;8.93;2.00;;;;;;;18.32;50.90;100193.41;4996241;28;20762;-66
2022/02/18 06:19:57;;;;;;;7.03;2.05;;;;;;;18.36;51.20;100186.91;4996327;28;20018;-66
2022/02/18 06:22:23;;;;;;;8.35;1.90;;;;;;;18.38;51.28;100187.59;4995430;28;20042;-67
2022/02/18 06:24:48;;;;;;;8.05;1.85;;;;;;;18.39;51.43;100175.22;4996444;28;20050;-67
2022/02/18 06:27:13;;;;;;;9.23;2.20;;;;;;;18.41;51.99;100168.84;4995915;28;20117;-67
2022/02/18 06:29:38;;;;;;;9.27;2.13;;;;;;;18.44;51.89;100157.16;4995558;28;20023;-67
2022/02/18 06:32:11;;;;;;;10.97;2.53;;;;;;;18.46;51.37;100156.03;4996372;28;20026;-67
2022/02/18 06:34:37;;;;;;;9.57;2.10;;;;;;;18.48;51.87;100142.69;4995456;28;20318;-68
2022/02/18 06:37:04;;;;;;;11.15;2.40;;;;;;;18.51;51.82;100121.31;4996241;28;20038;-67
2022/02/18 06:39:29;;;;;;;8.90;2.00;;;;;;;18.52;51.72;100122.13;4995583;28;20402;-67
2022/02/18 06:41:54;;;;;;;9.80;1.75;;;;;;;18.53;52.05;100102.69;4995347;28;20434;-67
2022/02/18 06:44:19;;;;;;;10.85;2.17;;;;;;;18.55;51.89;100092.81;4995537;28;20101;-67
2022/02/18 06:46:45;;;;;;;8.50;2.40;;;;;;;18.56;52.22;100097.94;4995907;28;20085;-67
2022/02/18 06:49:10;;;;;;;5.97;1.80;;;;;;;18.58;51.70;100082.81;4994741;28;20018;-67
2022/02/18 06:51:35;;;;;;;9.38;2.88;;;;;;;18.61;51.79;100076.41;4995896;28;20786;-67
2022/02/18 06:54:01;;;;;;;9.75;1.98;;;;;;;18.63;51.63;100064.72;4996216;28;20026;-66
2022/02/18 06:56:29;;;;;;;7.78;1.92;;;;;;;18.63;52.02;100056.81;4994579;28;20038;-66
2022/02/18 06:58:54;;;;;;;6.75;1.80;;;;;;;18.66;51.94;100050.44;4995637;28;20018;-67
2022/02/18 07:01:20;;;;;;;7.77;1.67;;;;;;;18.66;51.76;100040.69;4995277;28;20029;-67
2022/02/18 07:03:45;;;;;;;7.10;2.10;;;;;;;18.69;51.92;100044.81;4994631;28;20295;-66
2022/02/18 07:06:11;;;;;;;10.80;2.08;;;;;;;18.70;51.64;100024.56;4995541;28;20035;-66
2022/02/18 07:08:36;;;;;;;8.67;1.80;;;;;;;18.72;50.58;100017.31;4995646;28;20038;-66
2022/02/18 07:11:04;;;;;;;8.37;2.00;;;;;;;18.72;50.75;100017.31;4994963;28;20321;-68
2022/02/18 07:13:29;;;;;;;8.80;1.88;;;;;;;18.77;50.89;100013.25;4995088;28;20275;-70
2022/02/18 07:15:55;;;;;;;6.63;1.75;;;;;;;18.81;50.36;100019.88;4995242;28;20022;-69
2022/02/18 07:18:21;;;;;;;8.02;1.98;;;;;;;18.84;50.76;100000.31;4994047;28;20113;-69
2022/02/18 07:20:47;;;;;;;5.78;1.75;;;;;;;18.89;50.62;99997.25;4995307;28;20038;-67
2022/02/18 07:23:12;;;;;;;5.78;1.60;;;;;;;18.93;50.37;100001.22;4994920;28;20041;-70
2022/02/18 07:25:38;;;;;;;7.20;1.90;;;;;;;18.95;50.06;99984.25;4994298;28;20030;-67
2022/02/18 07:28:06;;;;;;;5.57;1.80;;;;;;;18.98;50.41;99983.13;4995235;28;20105;-68
2022/02/18 07:30:31;;;;;;;6.35;1.70;;;;;;;18.99;50.38;99961.88;4994900;28;20493;-68
2022/02/18 07:33:06;;;;;;;5.30;1.55;;;;;;;19.02;50.75;99966.81;4994607;28;20034;-68
2022/02/18 07:35:32;;;;;;;6.75;1.67;;;;;;;19.03;50.44;99959.75;4995070;28;20102;-67
2022/02/18 07:38:02;;;;;;;7.03;1.83;;;;;;;19.06;50.53;99951.53;4994284;28;20078;-68
2022/02/18 07:40:27;;;;;;;6.80;2.15;;;;;;;19.06;50.10;99943.59;4994688;28;20042;-66
2022/02/18 07:42:55;;;;;;;8.88;2.03;;;;;;;19.05;50.21;99935.81;4994984;28;20101;-68
2022/02/18 07:45:21;;;;;;;7.30;1.58;;;;;;;19.08;50.61;99925.78;4993626;28;20030;-69
2022/02/18 07:47:51;;;;;;;4.75;1.42;;;;;;;19.09;50.73;99916.88;4994781;28;20036;-68
2022/02/18 07:50:17;;;;;;;7.00;1.88;;;;;;;19.11;50.61;99896.44;4994723;28;20022;-68
2022/02/18 07:52:43;;;;;;;8.07;2.30;;;;;;;19.12;50.45;99900.75;4993978;28;20046;-67
2022/02/18 07:55:08;;;;;;;7.20;2.15;;;;;;;19.13;50.96;99905.00;4994424;28;20275;-69
2022/02/18 07:57:34;;;;;;;7.30;1.88;;;;;;;19.14;50.92;99906.69;4994506;28;20046;-68
2022/02/18 08:00:03;;;;;;;8.50;2.42;;;;;;;19.13;50.04;99889.16;4993743;28;20031;-67
2022/02/18 08:02:28;;;;;;;6.35;1.50;;;;;;;19.12;50.59;99878.75;4994064;28;20034;-67
2022/02/18 08:04:54;;;;;;;8.07;1.97;;;;;;;19.14;50.95;99874.19;4994120;28;20042;-67
2022/02/18 08:07:19;;;;;;;5.47;1.57;;;;;;;19.15;50.83;99858.16;4993533;28;20280;-67
2022/02/18 08:09:44;;;;;;;6.05;1.42;;;;;;;19.16;50.84;99851.88;4994191;28;20752;-67
2022/02/18 08:12:10;;;;;;;7.32;2.03;;;;;;;19.18;51.49;99863.16;4994015;28;20031;-66
2022/02/18 08:14:35;;;;;;;7.25;1.60;;;;;;;19.17;51.30;99858.03;4993437;28;20541;-68
2022/02/18 08:17:00;;;;;;;5.15;1.45;;;;;;;19.20;51.00;99861.16;4994441;28;20040;-67
2022/02/18 08:19:25;;;;;;;6.70;1.50;;;;;;;19.20;51.04;99844.47;4993870;28;20038;-68
2022/02/18 08:21:51;;;;;;;8.00;1.67;;;;;;;19.17;51.27;99831.59;4993654;28;20288;-68
2022/02/18 08:24:18;;;;;;;9.10;1.58;;;;;;;19.23;51.28;99832.78;4993842;28;20113;-68
2022/02/18 08:26:48;;;;;;;6.10;1.80;;;;;;;19.29;51.71;99835.63;4994008;28;20038;-72
2022/02/18 08:29:17;;;;;;;5.93;1.60;;;;;;;19.35;51.93;99828.88;4992958;28;20030;-70
2022/02/18 08:31:43;;;;;;;6.60;2.20;;;;;;;19.40;51.39;99826.59;4994025;28;20022;-67
2022/02/18 08:34:08;;;;;;;6.85;1.75;;;;;;;19.47;51.54;99827.63;4993255;28;20026;-69
2022/02/18 08:36:35;;;;;;;5.78;1.50;;;;;;;19.51;51.30;99818.41;4993964;28;20057;-68
2022/02/18 08:39:04;;;;;;;6.63;1.75;;;;;;;19.55;51.55;99808.31;4993915;28;20406;-67
2022/02/18 08:41:30;;;;;;;8.68;1.67;;;;;;;19.59;51.63;99809.69;4992717;28;20042;-69
2022/02/18 08:43:58;;;;;;;5.63;1.40;;;;;;;19.62;51.67;99793.50;4993738;28;20554;-67
2022/02/18 08:46:26;;;;;;;7.10;1.52;;;;;;;19.66;51.44;99788.72;4993467;28;20040;-69
2022/02/18 08:48:52;;;;;;;6.88;1.73;;;;;;;19.65;51.31;99782.59;4993087;28;20109;-68
2022/02/18 08:51:17;;;;;;;5.57;1.40;;;;;;;19.69;51.19;99781.31;4993412;28;20109;-68
2022/02/18 08:53:42;;;;;;;6.75;1.48;;;;;;;19.62;50.48;99766.25;4993615;28;20280;-66
2022/02/18 08:56:08;;;;;;;7.75;1.90;;;;;;;19.55;51.12;99761.59;4992482;28;20022;-67
2022/02/18 08:58:33;;;;;;;4.82;1.10;;;;;;;19.51;51.37;99744.41;4993644;28;20433;-67
2022/02/18 09:00:58;;;;;;;4.57;1.38;;;;;;;19.48;51.73;99755.28;4993542;28;20057;-67
2022/02/18 09:03:23;;;;;;;7.23;1.73;;;;;;;19.42;51.97;99734.78;4992259;28;20113;-67
2022/02/18 09:05:49;;;;;;;4.95;1.20;;;;;;;19.43;52.00;99741.75;4993290;28;20120;-66
2022/02/18 09:08:18;;;;;;;5.18;1.30;;;;;;;19.40;51.70;99719.09;4993226;28;20039;-68
2022/02/18 09:10:49;;;;;;;4.28;1.40;;;;;;;19.39;52.02;99716.59;4992554;28;20426;-67
2022/02/18 09:13:14;;;;;;;3.85;1.30;;;;;;;19.37;51.87;99710.66;4993316;28;20112;-67
2022/02/18 09:15:39;;;;;;;5.93;1.20;;;;;;;19.34;52.25;99689.84;4993348;28;20062;-67
2022/02/18 09:18:05;;;;;;;5.63;1.33;;;;;;;19.32;52.37;99689.19;4992589;28;20482;-67
2022/02/18 09:20:30;;;;;;;6.07;1.55;;;;;;;19.30;52.43;99689.34;4992113;28;20026;-67
2022/02/18 09:22:56;;;;;;;5.25;1.30;;;;;;;19.29;52.38;99695.63;4993360;28;20026;-67
2022/02/18 09:25:21;;;;;;;5.57;1.40;;;;;;;19.29;52.11;99686.88;4991950;28;20038;-66
2022/02/18 09:27:46;;;;;;;8.20;1.40;;;;;;;19.27;52.40;99684.38;4993259;28;20130;-66
2022/02/18 09:30:12;;;;;;;4.13;1.13;;;;;;;19.27;52.23;99680.94;4992888;28;20058;-67
2022/02/18 09:32:41;;;;;;;6.57;1.45;;;;;;;19.27;52.32;99673.00;4992343;28;20027;-66
2022/02/18 09:35:07;;;;;;;4.32;1.08;;;;;;;19.25;52.47;99673.16;4992919;28;20023;-66
2022/02/18 09:37:34;;;;;;;6.15;1.10;;;;;;;19.23;52.32;99651.34;4992093;28;20061;-68
2022/02/18 09:39:59;;;;;;;4.40;1.13;;;;;;;19.25;52.35;99667.88;4992972;28;20534;-66
2022/02/18 09:42:26;;;;;;;5.33;0.97;;;;;;;19.24;52.68;99671.50;4992776;28;20065;-66
2022/02/18 09:44:52;;;;;;;4.35;1.10;;;;;;;19.23;52.59;99672.47;4992625;28;20315;-67
2022/02/18 09:47:17;;;;;;;5.45;1.50;;;;;;;19.21;52.82;99671.81;4992679;28;20050;-67
2022/02/18 09:49:45;;;;;;;6.50;1.23;;;;;;;19.20;52.82;99663.06;4993073;28;20085;-67
2022/02/18 09:52:12;;;;;;;5.30;1.17;;;;;;;19.21;52.23;99651.50;4991879;28;20402;-69
2022/02/18 09:54:37;;;;;;;5.68;1.25;;;;;;;19.20;52.18;99657.78;4992893;28;20540;-69
2022/02/18 09:57:03;;;;;;;3.92;0.93;;;;;;;19.19;52.92;99635.00;4993001;28;20042;-68
2022/02/18 09:59:32;;;;;;;4.47;0.82;;;;;;;19.18;52.90;99638.66;4991933;28;20029;-67
2022/02/18 10:01:58;;;;;;;4.10;1.13;;;;;;;19.19;52.50;99627.06;4992916;28;20023;-67
2022/02/18 10:04:24;;;;;;;3.65;0.95;;;;;;;19.18;52.54;99606.97;4992202;28;20138;-67
2022/02/18 10:06:49;;;;;;;4.10;1.00;;;;;;;19.19;52.95;99603.31;4992060;28;20130;-67
2022/02/18 10:09:14;;;;;;;3.65;0.90;;;;;;;19.18;52.88;99584.97;4992335;28;20138;-64
2022/02/18 10:11:51;;;;;;;3.58;0.90;;;;;;;19.18;51.87;99599.03;4992776;28;20096;-67
2022/02/18 10:14:16;;;;;;;5.32;1.10;;;;;;;19.18;52.41;99590.25;4991881;28;20043;-67
2022/02/18 10:16:41;;;;;;;3.33;0.68;;;;;;;19.15;52.72;99585.31;4992667;28;20089;-66
2022/02/18 10:19:10;;;;;;;5.55;1.40;;;;;;;19.17;53.09;99594.72;4992359;28;20105;-67
2022/02/18 10:21:37;;;;;;;3.70;0.75;;;;;;;19.18;52.89;99592.91;4991701;28;20030;-67
2022/02/18 10:24:08;;;;;;;3.03;0.70;;;;;;;19.17;52.94;99578.06;4992685;28;20085;-67
2022/02/18 10:26:39;;;;;;;3.70;0.85;;;;;;;19.18;52.68;99559.41;4992946;28;20022;-67
2022/02/18 10:29:06;;;;;;;4.45;0.90;;;;;;;19.19;52.41;99554.94;4992664;28;20042;-68
2022/02/18 10:31:36;;;;;;;3.95;0.95;;;;;;;19.19;52.61;99549.66;4992555;28;20030;-67
2022/02/18 10:34:07;;;;;;;5.55;1.02;;;;;;;19.19;53.23;99533.81;4995457;28;20060;-69
2022/02/18 10:36:44;;;;;;;2.53;0.82;;;;;;;19.20;52.87;99543.38;4996095;28;20201;-70
2022/02/18 10:39:30;;;;;;;3.30;0.70;;;;;;;19.19;53.16;99520.63;4996056;28;20030;-67
2022/02/18 10:42:05;;;;;;;5.15;0.95;;;;;;;19.18;53.09;99524.25;4995435;28;20084;-66
2022/02/18 10:44:33;;;;;;;3.33;0.75;;;;;;;19.19;52.84;99510.06;4995969;28;20085;-67
2022/02/18 10:47:05;;;;;;;1.80;0.63;;;;;;;19.17;52.79;99486.44;4996303;28;20022;-66
2022/02/18 10:49:36;;;;;;;3.75;0.70;;;;;;;19.18;52.70;99482.84;4995269;28;20080;-66
2022/02/18 10:52:10;;;;;;;3.92;0.95;;;;;;;19.19;51.80;99481.81;4996197;28;20029;-67
2022/02/18 10:54:36;;;;;;;4.32;0.93;;;;;;;19.20;52.41;99458.88;4995961;28;20030;-66
2022/02/18 10:57:24;;;;;;;3.90;0.90;;;;;;;19.20;52.73;99461.50;4995133;28;20032;-66
2022/02/18 10:59:51;;;;;;;6.43;1.20;;;;;;;19.23;52.79;99460.38;4996058;28;20042;-67
2022/02/18 11:02:41;;;;;;;6.40;1.40;;;;;;;19.23;53.59;99461.19;4994903;28;20022;-67
2022/02/18 11:05:28;;;;;;;6.82;1.67;;;;;;;19.23;53.58;99450.63;4995376;28;20042;-67
2022/02/18 11:07:53;;;;;;;12.75;1.30;;;;;;;19.24;53.69;99443.53;4995639;28;20022;-67
2022/02/18 11:10:48;;;;;;;6.75;1.50;;;;;;;19.24;53.63;99440.91;4994735;28;20030;-67
2022/02/18 11:13:15;;;;;;;6.05;1.15;;;;;;;19.25;53.71;99442.53;4994788;28;20050;-67
2022/02/18 11:15:41;;;;;;;6.20;1.80;;;;;;;19.24;53.80;99432.97;4995451;28;20034;-66
2022/02/18 11:18:08;;;;;;;5.65;1.25;;;;;;;19.25;53.90;99424.03;4994501;28;20390;-66
2022/02/18 11:20:33;;;;;;;5.85;1.10;;;;;;;19.26;53.85;99428.34;4995546;28;20037;-66
2022/02/18 11:23:02;;;;;;;4.88;1.42;;;;;;;19.27;53.67;99414.16;4994808;28;20019;-66
2022/02/18 11:25:27;;;;;;;5.70;1.20;;;;;;;19.27;53.94;99411.50;4994933;28;20534;-67